createdAt,value
2022-12-23T00:00:40.162Z,92.36
2022-12-23T00:01:27.951Z,92.35
2022-12-23T00:02:15.036Z,92.29
2022-12-23T00:03:01.944Z,92.38
2022-12-23T00:03:48.917Z,92.26
2022-12-23T00:04:37.133Z,92.35
2022-12-23T00:05:24.496Z,92.17
2022-12-23T00:06:14.028Z,92.35
2022-12-23T00:07:00.645Z,92.34
2022-12-23T00:07:47.375Z,92.30
2022-12-23T00:08:37.284Z,92.33
2022-12-23T00:09:23.971Z,92.41
2022-12-23T00:10:11.368Z,92.32
2022-12-23T00:10:58.420Z,92.33
2022-12-23T00:12:03.694Z,92.30
2022-12-23T00:13:09.183Z,92.37
2022-12-23T00:14:20.593Z,92.54
2022-12-23T00:15:09.323Z,92.35
2022-12-23T00:16:22.413Z,92.20
2022-12-23T00:17:22.112Z,92.25
2022-12-23T00:18:09.849Z,92.36
2022-12-23T00:18:57.193Z,92.54
2022-12-23T00:19:43.865Z,92.56
2022-12-23T00:20:30.685Z,92.43
2022-12-23T00:21:17.819Z,92.34
2022-12-23T00:22:04.348Z,92.44
2022-12-23T00:23:05.854Z,92.61
2022-12-23T00:23:52.673Z,92.47
2022-12-23T00:24:39.231Z,92.51
2022-12-23T00:25:41.709Z,92.29
2022-12-23T00:26:28.898Z,92.63
2022-12-23T00:27:17.096Z,92.23
2022-12-23T00:28:03.835Z,92.22
2022-12-23T00:28:55.416Z,92.21
2022-12-23T00:29:42.297Z,92.54
2022-12-23T00:30:29.052Z,92.53
2022-12-23T00:31:18.686Z,92.31
2022-12-23T00:32:05.467Z,92.42
2022-12-23T00:32:52.024Z,92.55
2022-12-23T00:33:44.157Z,92.59
2022-12-23T00:34:31.032Z,92.38
2022-12-23T00:35:17.860Z,92.31
2022-12-23T00:36:19.662Z,92.53
2022-12-23T00:37:06.473Z,92.29
2022-12-23T00:37:53.258Z,92.24
2022-12-23T00:38:59.271Z,92.33
2022-12-23T00:40:06.901Z,92.11
2022-12-23T00:41:12.325Z,92.27
2022-12-23T00:42:20.431Z,92.21
2022-12-23T00:43:06.994Z,92.29
2022-12-23T00:43:53.505Z,92.34
2022-12-23T00:44:40.111Z,92.31
2022-12-23T00:45:27.094Z,92.28
2022-12-23T00:46:13.720Z,92.37
2022-12-23T00:47:00.259Z,92.28
2022-12-23T00:48:06.788Z,92.21
2022-12-23T00:49:12.265Z,92.19
2022-12-23T00:49:59.811Z,92.38
2022-12-23T00:50:48.159Z,92.61
2022-12-23T00:51:34.927Z,92.35
2022-12-23T00:52:21.729Z,92.13
2022-12-23T00:53:08.299Z,92.02
2022-12-23T00:53:57.490Z,92.35
2022-12-23T00:54:44.224Z,92.22
2022-12-23T00:55:31.511Z,92.18
2022-12-23T00:56:18.344Z,92.29
2022-12-23T00:57:05.139Z,92.16
2022-12-23T00:57:54.353Z,92.33
2022-12-23T00:58:40.843Z,92.42
2022-12-23T00:59:27.656Z,92.32
2022-12-23T01:00:18.074Z,92.24
2022-12-23T01:01:23.417Z,92.28
2022-12-23T01:02:30.651Z,92.38
2022-12-23T01:03:36.112Z,92.38
2022-12-23T01:04:44.778Z,92.29
2022-12-23T01:05:37.159Z,92.43
2022-12-23T01:06:23.663Z,92.36
2022-12-23T01:07:10.541Z,92.60
2022-12-23T01:07:57.328Z,92.28
2022-12-23T01:08:44.062Z,92.21
2022-12-23T01:09:30.854Z,92.20
2022-12-23T01:10:17.475Z,92.29
2022-12-23T01:11:09.372Z,92.54
2022-12-23T01:11:56.126Z,92.27
2022-12-23T01:12:42.645Z,92.47
2022-12-23T01:13:29.301Z,92.38
2022-12-23T01:14:17.515Z,92.24
2022-12-23T01:15:04.467Z,92.41
2022-12-23T01:15:51.146Z,92.39
2022-12-23T01:16:39.030Z,92.34
2022-12-23T01:17:25.789Z,92.25
2022-12-23T01:18:13.538Z,92.42
2022-12-23T01:19:00.271Z,92.28
2022-12-23T01:19:47.251Z,92.42
2022-12-23T01:20:34.002Z,92.42
2022-12-23T01:21:20.896Z,92.37
2022-12-23T01:22:07.398Z,92.37
2022-12-23T01:22:54.241Z,92.55
2022-12-23T01:23:41.086Z,92.47
2022-12-23T01:24:30.043Z,92.29
2022-12-23T01:25:18.258Z,92.45
2022-12-23T01:26:10.960Z,92.36
2022-12-23T01:26:58.392Z,92.42
2022-12-23T01:27:45.231Z,92.44
2022-12-23T01:28:34.131Z,92.30
2022-12-23T01:29:20.956Z,92.26
2022-12-23T01:30:08.542Z,92.38
2022-12-23T01:30:55.944Z,92.44
2022-12-23T01:31:43.166Z,92.21
2022-12-23T01:32:30.259Z,92.37
2022-12-23T01:33:17.241Z,92.09
2022-12-23T01:34:03.993Z,92.10
2022-12-23T01:34:50.792Z,92.06
2022-12-23T01:35:37.382Z,92.18
2022-12-23T01:36:23.938Z,92.34
2022-12-23T01:37:10.691Z,92.13
2022-12-23T01:37:57.526Z,92.13
2022-12-23T01:38:44.826Z,92.25
2022-12-23T01:39:31.528Z,92.10
2022-12-23T01:40:18.572Z,92.20
2022-12-23T01:41:05.600Z,92.05
2022-12-23T01:42:10.787Z,92.04
2022-12-23T01:42:57.359Z,92.22
2022-12-23T01:43:45.934Z,92.07
2022-12-23T01:44:53.648Z,92.02
2022-12-23T01:45:40.204Z,92.10
2022-12-23T01:46:27.010Z,92.25
2022-12-23T01:47:17.973Z,92.19
2022-12-23T01:48:09.963Z,92.29
2022-12-23T01:48:57.669Z,92.32
2022-12-23T01:49:44.502Z,92.33
2022-12-23T01:50:55.386Z,92.31
2022-12-23T01:51:42.990Z,92.39
2022-12-23T01:52:34.343Z,92.56
2022-12-23T01:53:28.593Z,92.53
2022-12-23T01:54:15.606Z,92.66
2022-12-23T01:55:02.589Z,92.63
2022-12-23T01:55:59.321Z,92.56
2022-12-23T01:56:46.311Z,92.57
2022-12-23T01:57:35.941Z,92.52
2022-12-23T01:58:36.044Z,92.45
2022-12-23T01:59:45.933Z,92.41
2022-12-23T02:00:51.135Z,92.57
2022-12-23T02:01:56.552Z,92.54
2022-12-23T02:03:02.928Z,92.38
2022-12-23T02:03:55.398Z,92.52
2022-12-23T02:04:43.439Z,92.50
2022-12-23T02:05:30.713Z,92.60
2022-12-23T02:06:42.711Z,92.57
2022-12-23T02:07:48.183Z,92.42
2022-12-23T02:08:53.623Z,92.69
2022-12-23T02:09:40.642Z,92.41
2022-12-23T02:10:40.767Z,92.64
2022-12-23T02:11:49.183Z,92.27
2022-12-23T02:13:14.597Z,92.28
2022-12-23T02:14:40.936Z,92.10
2022-12-23T02:16:18.102Z,92.11
2022-12-23T02:17:35.917Z,92.17
2022-12-23T02:18:41.513Z,92.41
2022-12-23T02:20:10.121Z,92.44
2022-12-23T02:21:12.367Z,92.20
2022-12-23T02:22:17.934Z,92.33
2022-12-23T02:23:33.574Z,92.41
2022-12-23T02:24:46.472Z,92.25
2022-12-23T02:26:15.163Z,92.20
2022-12-23T02:27:30.646Z,92.51
2022-12-23T02:28:55.787Z,92.16
2022-12-23T02:30:03.360Z,92.35
2022-12-23T02:31:25.075Z,92.30
2022-12-23T02:32:26.826Z,92.02
2022-12-23T02:33:39.887Z,92.11
2022-12-23T02:34:52.645Z,91.77
2022-12-23T02:36:00.868Z,92.28
2022-12-23T02:36:55.187Z,91.95
2022-12-23T02:37:54.388Z,92.28
2022-12-23T02:38:54.858Z,91.92
2022-12-23T02:39:59.651Z,91.87
2022-12-23T02:40:58.264Z,92.05
2022-12-23T02:42:15.298Z,91.97
2022-12-23T02:43:34.143Z,91.57
2022-12-23T02:44:25.917Z,91.86
2022-12-23T02:45:30.935Z,91.91
2022-12-23T02:46:36.852Z,91.40
2022-12-23T02:47:48.243Z,91.55
2022-12-23T02:49:02.091Z,91.34
2022-12-23T02:49:58.833Z,91.39
2022-12-23T02:50:49.052Z,91.42
2022-12-23T02:51:44.435Z,91.44
2022-12-23T02:52:34.716Z,91.57
2022-12-23T02:53:33.380Z,91.63
2022-12-23T02:54:31.095Z,91.68
2022-12-23T02:55:32.505Z,91.33
2022-12-23T02:56:23.448Z,91.43
2022-12-23T02:57:14.153Z,91.38
2022-12-23T02:58:06.028Z,91.30
2022-12-23T02:59:15.110Z,91.40
2022-12-23T03:00:03.527Z,91.09
2022-12-23T03:00:54.761Z,91.20
2022-12-23T03:01:44.919Z,91.13
2022-12-23T03:02:40.500Z,91.08
2022-12-23T03:03:28.473Z,91.04
2022-12-23T03:04:15.884Z,91.29
2022-12-23T03:05:02.770Z,91.37
2022-12-23T03:05:51.623Z,90.94
2022-12-23T03:06:46.278Z,90.99
2022-12-23T03:07:35.685Z,90.93
2022-12-23T03:08:42.561Z,91.15
2022-12-23T03:09:51.624Z,91.31
2022-12-23T03:11:09.827Z,91.12
2022-12-23T03:12:10.514Z,90.93
2022-12-23T03:13:10.173Z,90.50
2022-12-23T03:13:59.092Z,90.60
2022-12-23T03:15:03.776Z,90.73
2022-12-23T03:16:08.624Z,90.24
2022-12-23T03:17:30.503Z,90.35
2022-12-23T03:18:41.307Z,89.95
2022-12-23T03:19:40.034Z,89.99
2022-12-23T03:20:29.679Z,89.96
2022-12-23T03:21:31.827Z,89.81
2022-12-23T03:22:34.377Z,89.85
2022-12-23T03:23:34.695Z,89.36
2022-12-23T03:24:46.563Z,89.56
2022-12-23T03:25:42.736Z,89.37
2022-12-23T03:26:53.286Z,89.25
2022-12-23T03:27:52.053Z,89.24
2022-12-23T03:29:01.732Z,89.17
2022-12-23T03:29:54.239Z,88.87
2022-12-23T03:30:47.463Z,88.90
2022-12-23T03:31:38.024Z,88.18
2022-12-23T03:32:29.513Z,88.54
